| time (UTC) | temp C | wind direction | speed KPH | gust KPH | rain 1hr cm | rain 24hr cm | rain mn cm | humidity % | barometer mb |
| 20260507080057 | 10 | 296 | 3.2 | 6.4 | 0.00 | 0.05 | 0.03 | 81 | 1017.2 |
| 20260507074100 | 10 | 130 | 3.2 | 6.4 | 0.00 | 0.08 | 0.03 | 82 | 1017.1 |
| 20260507073059 | 10 | 257 | 1.6 | 4.8 | 0.00 | 0.10 | 0.03 | 84 | 1017.1 |
| 20260507072058 | 10 | 261 | 1.6 | 4.8 | 0.00 | 0.13 | 0.03 | 84 | 1017.0 |
| 20260507071057 | 10 | 253 | 1.6 | 4.8 | 0.00 | 0.13 | 0.03 | 87 | 1017.0 |
| 20260507070056 | 9 | 261 | 3.2 | 6.4 | 0.00 | 0.15 | 0.03 | 87 | 1016.9 |
| 20260507065055 | 9 | 255 | 3.2 | 6.4 | 0.00 | 0.15 | 0.03 | 90 | 1016.9 |
| 20260507064054 | 8 | 260 | 3.2 | 6.4 | 0.00 | 0.15 | 0.03 | 91 | 1016.8 |
| 20260507063054 | 8 | 265 | 3.2 | 8.0 | 0.00 | 0.20 | 0.03 | 92 | 1016.8 |
| 20260507061058 | 8 | 265 | 3.2 | 8.0 | 0.00 | 0.23 | 0.03 | 95 | 1016.7 |
| 20260507060055 | 8 | 274 | 4.8 | 8.0 | 0.00 | 0.23 | 0.03 | 97 | 1016.5 |
| 20260507055052 | 8 | 288 | 3.2 | 8.0 | 0.00 | 0.30 | 0.03 | 98 | 1016.4 |
| 20260507054056 | 7 | 284 | 3.2 | 8.0 | 0.00 | 0.33 | 0.03 | 98 | 1016.4 |
| 20260507053052 | 7 | 287 | 3.2 | 6.4 | 0.00 | 0.36 | 0.03 | 98 | 1016.4 |
| 20260507052055 | 7 | 294 | 1.6 | 4.8 | 0.00 | 0.38 | 0.03 | 99 | 1016.3 |
| 20260507051057 | 7 | 289 | 1.6 | 4.8 | 0.00 | 0.41 | 0.03 | 10 | 1016.2 |
| 20260507045057 | 7 | 260 | 1.6 | 4.8 | 0.00 | 0.48 | 0.03 | 10 | 1016.0 |
| 20260507044059 | 7 | 235 | 0.0 | 3.2 | 0.00 | 0.51 | 0.03 | 10 | 1015.9 |
| 20260507043056 | 7 | 285 | 1.6 | 3.2 | 0.00 | 0.51 | 0.03 | 10 | 1015.9 |
| 20260507042056 | 7 | 282 | 1.6 | 3.2 | 0.00 | 0.53 | 0.03 | 10 | 1015.8 |
| 20260507040056 | 7 | 303 | 0.0 | 1.6 | 0.00 | 0.61 | 0.03 | 10 | 1015.7 |
| 20260507035057 | 7 | 311 | 0.0 | 1.6 | 0.00 | 0.61 | 0.03 | 10 | 1015.7 |
| 20260507034056 | 7 | 298 | 0.0 | 1.6 | 0.00 | 0.64 | 0.03 | 10 | 1015.6 |
| 20260507033053 | 7 | 296 | 0.0 | 0.0 | 0.00 | 0.66 | 0.03 | 10 | 1015.5 |
| 20260507032056 | 7 | 296 | 0.0 | 0.0 | 0.03 | 0.69 | 0.03 | 10 | 1015.5 |
| 20260507031054 | 7 | 296 | 0.0 | 3.2 | 0.03 | 0.71 | 0.03 | 10 | 1015.5 |
| 20260507030056 | 7 | 303 | 1.6 | 3.2 | 0.03 | 0.71 | 0.03 | 99 | 1015.5 |
| 20260507025054 | 7 | 323 | 0.0 | 3.2 | 0.03 | 0.71 | 0.03 | 99 | 1015.4 |
| 20260507023051 | 7 | 22 | 1.6 | 4.8 | 0.03 | 0.76 | 0.03 | 99 | 1015.3 |
| 20260507022057 | 7 | 22 | 1.6 | 4.8 | 0.03 | 0.79 | 0.03 | 98 | 1015.3 |
| 20260507021056 | 7 | 34 | 3.2 | 8.0 | 0.00 | 0.76 | 0.00 | 97 | 1015.3 |
| 20260507020055 | 7 | 20 | 4.8 | 8.0 | 0.00 | 0.79 | 0.00 | 97 | 1015.2 |
| 20260507015055 | 7 | 9 | 1.6 | 4.8 | 0.00 | 0.79 | 0.00 | 98 | 1015.1 |
| 20260507014057 | 7 | 13 | 1.6 | 3.2 | 0.00 | 0.81 | 0.00 | 99 | 1015.1 |
| 20260507012053 | 7 | 357 | 1.6 | 4.8 | 0.00 | 0.86 | 0.00 | 99 | 1015.1 |
| 20260507011058 | 7 | 357 | 1.6 | 4.8 | 0.00 | 0.89 | 0.00 | 99 | 1015.0 |
| 20260507010058 | 7 | 6 | 1.6 | 4.8 | 0.00 | 0.91 | 0.00 | 99 | 1015.0 |
| 20260507005055 | 7 | 14 | 3.2 | 6.4 | 0.00 | 0.94 | 0.00 | 99 | 1014.9 |
| 20260507004056 | 7 | 14 | 3.2 | 6.4 | 0.00 | 0.99 | 0.00 | 98 | 1014.9 |
| 20260507003057 | 7 | 14 | 3.2 | 6.4 | 0.00 | 0.99 | 0.00 | 98 | 1014.9 |
| 20260507002057 | 7 | 19 | 3.2 | 4.8 | 0.00 | 0.99 | 0.00 | 99 | 1014.8 |
| 20260507001056 | 7 | 23 | 3.2 | 6.4 | 0.00 | 1.02 | 0.00 | 99 | 1014.8 |
| 20260507000101 | 7 | 23 | 3.2 | 6.4 | 0.00 | 1.04 | 0.00 | 99 | 1014.7 |
| 20260506235106 | 7 | 22 | 3.2 | 6.4 | 0.00 | 1.07 | 0.00 | 99 | 1014.7 |
| 20260506234105 | 7 | 22 | 3.2 | 8.0 | 0.00 | 1.09 | 0.00 | 99 | 1014.7 |
| 20260506233106 | 7 | 19 | 3.2 | 8.0 | 0.00 | 1.09 | 0.00 | 99 | 1014.6 |
| 20260506232104 | 7 | 21 | 3.2 | 6.4 | 0.00 | 1.09 | 0.00 | 99 | 1014.5 |
| 20260506231104 | 7 | 19 | 4.8 | 8.0 | 0.00 | 1.12 | 0.00 | 99 | 1014.5 |
| 20260506230106 | 7 | 10 | 4.8 | 9.7 | 0.00 | 1.14 | 0.00 | 98 | 1014.4 |
| 20260506225103 | 6 | 10 | 4.8 | 8.0 | 0.00 | 1.14 | 0.00 | 99 | 1014.3 |
| 20260506224105 | 6 | 1 | 4.8 | 8.0 | 0.00 | 1.17 | 0.00 | 98 | 1014.2 |
| 20260506223106 | 6 | 358 | 4.8 | 9.7 | 0.00 | 1.17 | 0.00 | 98 | 1014.2 |
| 20260506220116 | 6 | 349 | 4.8 | 9.7 | 0.00 | 1.27 | 0.00 | 97 | 1014.1 |
| 20260506215114 | 6 | 349 | 4.8 | 9.7 | 0.00 | 1.30 | 1.27 | 96 | 1014.1 |
| 20260506213110 | 6 | 341 | 6.4 | 9.7 | 0.00 | 1.35 | 1.27 | 94 | 1014.0 |
| 20260506211112 | 7 | 339 | 6.4 | 12.9 | 0.00 | 1.37 | 1.27 | 92 | 1013.7 |
| 20260506210111 | 7 | 346 | 4.8 | 11.3 | 0.00 | 1.42 | 1.27 | 91 | 1013.6 |
| 20260506205109 | 7 | 350 | 6.4 | 11.3 | 0.00 | 1.47 | 1.27 | 91 | 1013.5 |
| 20260506204109 | 7 | 349 | 6.4 | 14.5 | 0.00 | 1.47 | 1.27 | 90 | 1013.4 |
| 20260506202112 | 8 | 355 | 6.4 | 14.5 | 0.00 | 1.50 | 1.27 | 89 | 1013.3 |
| 20260506201114 | 8 | 350 | 4.8 | 9.7 | 0.00 | 1.55 | 1.27 | 88 | 1013.2 |
| 20260506200112 | 8 | 350 | 4.8 | 9.7 | 0.00 | 1.55 | 1.27 | 88 | 1013.1 |
| 20260506195109 | 8 | 358 | 4.8 | 12.9 | 0.00 | 1.55 | 1.27 | 89 | 1013.0 |
| 20260506194111 | 8 | 8 | 6.4 | 11.3 | 0.00 | 1.55 | 1.27 | 90 | 1012.9 |
| 20260506193110 | 9 | 9 | 6.4 | 9.7 | 0.00 | 1.55 | 1.27 | 91 | 1012.8 |
| 20260506192111 | 9 | 11 | 6.4 | 11.3 | 0.00 | 1.57 | 1.27 | 91 | 1012.7 |
| 20260506190111 | 10 | 348 | 3.2 | 8.0 | 0.00 | 1.63 | 1.27 | 94 | 1012.3 |
| 20260506185109 | 10 | 351 | 3.2 | 8.0 | 0.00 | 1.65 | 1.27 | 93 | 1012.2 |
| 20260506184102 | 10 | 342 | 4.8 | 9.7 | 0.00 | 1.65 | 1.27 | 91 | 1012.0 |
| 20260506183107 | 10 | 320 | 3.2 | 9.7 | 0.00 | 1.65 | 1.27 | 90 | 1011.9 |
| 20260506180109 | 10 | 314 | 3.2 | 11.3 | 0.00 | 1.68 | 1.27 | 88 | 1011.5 |
| 20260506175106 | 10 | 311 | 3.2 | 9.7 | 0.00 | 1.68 | 1.27 | 88 | 1011.4 |
| 20260506174106 | 10 | 46 | 3.2 | 9.7 | 0.00 | 1.68 | 1.27 | 87 | 1011.3 |
| 20260506173103 | 10 | 316 | 4.8 | 11.3 | 0.00 | 1.68 | 1.27 | 87 | 1011.1 |
| 20260506172106 | 10 | 316 | 4.8 | 14.5 | 0.00 | 1.68 | 1.27 | 85 | 1011.0 |
| 20260506171105 | 11 | 302 | 6.4 | 14.5 | 0.00 | 1.68 | 1.27 | 83 | 1011.0 |
| 20260506170100 | 11 | 355 | 4.8 | 14.5 | 0.00 | 1.68 | 1.27 | 82 | 1010.9 |
| 20260506165100 | 11 | 321 | 8.0 | 17.7 | 0.00 | 1.68 | 1.27 | 83 | 1010.8 |
| 20260506164103 | 11 | 355 | 4.8 | 14.5 | 0.00 | 1.68 | 1.27 | 81 | 1010.8 |
| 20260506163101 | 11 | 296 | 4.8 | 12.9 | 0.00 | 1.68 | 1.27 | 85 | 1010.8 |
| 20260506162106 | 11 | 290 | 3.2 | 8.0 | 0.00 | 1.68 | 1.27 | 85 | 1010.8 |
| 20260506161104 | 10 | 293 | 1.6 | 8.0 | 0.00 | 1.68 | 1.27 | 92 | 1010.8 |
| 20260506155103 | 10 | 253 | 1.6 | 4.8 | 0.00 | 1.68 | 1.27 | 95 | 1010.9 |
| 20260506154107 | 10 | 299 | 1.6 | 4.8 | 0.00 | 1.68 | 1.27 | 93 | 1010.9 |
| 20260506153101 | 10 | 331 | 1.6 | 6.4 | 0.00 | 1.68 | 1.27 | 93 | 1010.9 |
| 20260506152101 | 10 | 36 | 1.6 | 6.4 | 0.00 | 1.68 | 1.27 | 91 | 1010.8 |
| 20260506151104 | 11 | 340 | 3.2 | 6.4 | 0.00 | 1.68 | 1.27 | 90 | 1010.8 |
| 20260506150100 | 11 | 356 | 3.2 | 8.0 | 0.00 | 1.68 | 1.27 | 90 | 1010.8 |
| 20260506144059 | 11 | 3 | 3.2 | 8.0 | 0.00 | 1.68 | 1.27 | 88 | 1010.7 |
| 20260506143059 | 11 | 291 | 4.8 | 9.7 | 0.00 | 1.68 | 1.27 | 88 | 1010.6 |
| 20260506142058 | 11 | 322 | 4.8 | 9.7 | 0.00 | 1.68 | 1.27 | 86 | 1010.7 |
| 20260506141059 | 11 | 314 | 3.2 | 9.7 | 0.00 | 1.68 | 1.27 | 87 | 1010.7 |
| 20260506140106 | 11 | 282 | 4.8 | 11.3 | 0.00 | 1.68 | 1.27 | 92 | 1010.7 |
| 20260506135100 | 11 | 285 | 3.2 | 8.0 | 0.00 | 1.68 | 1.27 | 93 | 1010.7 |
| 20260506134100 | 11 | 290 | 4.8 | 11.3 | 0.00 | 1.68 | 1.27 | 93 | 1010.8 |
| 20260506133059 | 11 | 294 | 4.8 | 9.7 | 0.00 | 1.68 | 1.27 | 91 | 1010.8 |
| 20260506132059 | 10 | 298 | 4.8 | 9.7 | 0.00 | 1.68 | 1.27 | 92 | 1010.8 |
| 20260506131059 | 10 | 314 | 4.8 | 11.3 | 0.00 | 1.68 | 1.27 | 92 | 1010.7 |
| 20260506130059 | 10 | 313 | 4.8 | 11.3 | 0.00 | 1.68 | 1.27 | 92 | 1010.7 |
| 20260506125059 | 11 | 303 | 4.8 | 12.9 | 0.00 | 1.68 | 1.27 | 93 | 1010.6 |
| 20260506122058 | 11 | 306 | 4.8 | 12.9 | 0.00 | 1.68 | 1.27 | 91 | 1010.4 |
| 20260506121056 | 11 | 335 | 4.8 | 12.9 | 0.00 | 1.68 | 1.27 | 91 | 1010.3 |
| 20260506115058 | 10 | 319 | 6.4 | 14.5 | 0.00 | 1.68 | 1.27 | 94 | 1010.3 |
| 20260506114100 | 10 | 331 | 6.4 | 17.7 | 0.00 | 1.68 | 1.27 | 95 | 1010.4 |
| 20260506113100 | 10 | 324 | 6.4 | 16.1 | 0.00 | 1.68 | 1.27 | 95 | 1010.4 |
| 20260506112100 | 10 | 316 | 6.4 | 12.9 | 0.00 | 1.68 | 1.27 | 95 | 1010.4 |
| 20260506111100 | 10 | 336 | 8.0 | 16.1 | 0.00 | 1.68 | 1.27 | 97 | 1010.4 |
| 20260506110058 | 10 | 337 | 6.4 | 14.5 | 0.00 | 1.68 | 1.27 | 98 | 1010.5 |
| 20260506105058 | 10 | 226 | 8.0 | 16.1 | 0.00 | 1.68 | 1.27 | 99 | 1010.5 |
| 20260506104100 | 9 | 331 | 6.4 | 16.1 | 0.00 | 1.68 | 1.27 | 99 | 1010.6 |
| 20260506103059 | 9 | 355 | 4.8 | 12.9 | 0.00 | 1.68 | 1.27 | 10 | 1010.6 |
| 20260506102100 | 9 | 342 | 8.0 | 20.9 | 0.00 | 1.68 | 1.27 | 10 | 1010.5 |
| 20260506101058 | 8 | 351 | 8.0 | 17.7 | 0.00 | 1.68 | 1.27 | 10 | 1010.5 |
| 20260506100057 | 8 | 352 | 8.0 | 17.7 | 0.00 | 1.68 | 1.27 | 10 | 1010.4 |
| 20260506095058 | 8 | 344 | 6.4 | 14.5 | 0.03 | 1.68 | 1.27 | 10 | 1010.4 |
| 20260506094059 | 8 | 53 | 8.0 | 16.1 | 0.03 | 1.68 | 1.27 | 10 | 1010.3 |
| 20260506093058 | 8 | 75 | 6.4 | 14.5 | 0.03 | 1.68 | 1.27 | 10 | 1010.2 |
| 20260506091057 | 8 | 228 | 8.0 | 16.1 | 0.05 | 1.68 | 1.27 | 10 | 1010.1 |
| 20260506090100 | 8 | 330 | 6.4 | 12.9 | 0.05 | 1.68 | 1.27 | 10 | 1010.0 |
| 20260506085059 | 8 | 329 | 6.4 | 16.1 | 0.05 | 1.68 | 1.27 | 10 | 1009.9 |
| 20260506084056 | 8 | 332 | 8.0 | 16.1 | 0.05 | 1.65 | 1.24 | 10 | 1009.8 |
| 20260506083056 | 8 | 330 | 8.0 | 17.7 | 0.05 | 1.68 | 1.24 | 10 | 1009.7 |
| 20260506082056 | 8 | 335 | 8.0 | 16.1 | 0.08 | 1.68 | 1.24 | 10 | 1009.7 |
| 20260506081057 | 7 | 346 | 8.0 | 16.1 | 0.05 | 1.65 | 1.22 | 10 | 1009.6 |